sensor_id;sensor_type;location;lat;lon;timestamp;temperature;humidity
21676;DHT22;10999;51.332;9.458;2022-07-06T00:02:01;16.10;54.90
21676;DHT22;10999;51.332;9.458;2022-07-06T00:04:27;15.90;55.20
21676;DHT22;10999;51.332;9.458;2022-07-06T00:06:54;15.90;55.70
21676;DHT22;10999;51.332;9.458;2022-07-06T00:09:21;15.90;55.90
21676;DHT22;10999;51.332;9.458;2022-07-06T00:11:48;15.70;56.10
21676;DHT22;10999;51.332;9.458;2022-07-06T00:14:14;15.80;56.30
21676;DHT22;10999;51.332;9.458;2022-07-06T00:16:41;15.70;56.60
21676;DHT22;10999;51.332;9.458;2022-07-06T00:19:08;15.60;56.80
21676;DHT22;10999;51.332;9.458;2022-07-06T00:21:35;15.50;57.00
21676;DHT22;10999;51.332;9.458;2022-07-06T00:24:01;15.50;57.20
21676;DHT22;10999;51.332;9.458;2022-07-06T00:26:28;15.40;57.40
21676;DHT22;10999;51.332;9.458;2022-07-06T00:28:55;15.40;57.80
21676;DHT22;10999;51.332;9.458;2022-07-06T00:31:21;15.30;58.20
21676;DHT22;10999;51.332;9.458;2022-07-06T00:33:48;15.30;58.50
21676;DHT22;10999;51.332;9.458;2022-07-06T00:36:15;15.30;58.70
21676;DHT22;10999;51.332;9.458;2022-07-06T00:38:42;15.30;59.00
21676;DHT22;10999;51.332;9.458;2022-07-06T00:41:08;15.30;59.30
21676;DHT22;10999;51.332;9.458;2022-07-06T00:43:48;15.20;59.40
21676;DHT22;10999;51.332;9.458;2022-07-06T00:46:15;15.30;59.70
21676;DHT22;10999;51.332;9.458;2022-07-06T00:48:42;15.20;59.90
21676;DHT22;10999;51.332;9.458;2022-07-06T00:51:09;15.20;60.00
21676;DHT22;10999;51.332;9.458;2022-07-06T00:53:36;15.20;60.80
21676;DHT22;10999;51.332;9.458;2022-07-06T00:56:03;15.20;61.20
21676;DHT22;10999;51.332;9.458;2022-07-06T00:58:30;15.00;61.30
21676;DHT22;10999;51.332;9.458;2022-07-06T01:00:57;14.90;61.70
21676;DHT22;10999;51.332;9.458;2022-07-06T01:03:24;14.90;62.70
21676;DHT22;10999;51.332;9.458;2022-07-06T01:05:50;14.90;63.20
21676;DHT22;10999;51.332;9.458;2022-07-06T01:08:17;14.80;63.50
21676;DHT22;10999;51.332;9.458;2022-07-06T01:10:45;14.70;63.10
21676;DHT22;10999;51.332;9.458;2022-07-06T01:13:12;14.70;63.50
21676;DHT22;10999;51.332;9.458;2022-07-06T01:15:38;14.60;63.90
21676;DHT22;10999;51.332;9.458;2022-07-06T01:18:05;14.60;64.90
21676;DHT22;10999;51.332;9.458;2022-07-06T01:20:32;14.70;64.20
21676;DHT22;10999;51.332;9.458;2022-07-06T01:22:59;14.60;64.20
21676;DHT22;10999;51.332;9.458;2022-07-06T01:25:25;14.50;63.80
21676;DHT22;10999;51.332;9.458;2022-07-06T01:27:52;14.40;64.40
21676;DHT22;10999;51.332;9.458;2022-07-06T01:30:19;14.30;65.10
21676;DHT22;10999;51.332;9.458;2022-07-06T01:32:46;14.40;65.00
21676;DHT22;10999;51.332;9.458;2022-07-06T01:35:13;14.30;65.30
21676;DHT22;10999;51.332;9.458;2022-07-06T01:37:41;14.20;66.30
21676;DHT22;10999;51.332;9.458;2022-07-06T01:40:09;14.20;66.60
21676;DHT22;10999;51.332;9.458;2022-07-06T01:42:36;14.20;67.30
21676;DHT22;10999;51.332;9.458;2022-07-06T01:45:03;14.10;67.40
21676;DHT22;10999;51.332;9.458;2022-07-06T01:47:30;14.10;67.60
21676;DHT22;10999;51.332;9.458;2022-07-06T01:50:00;14.10;67.90
21676;DHT22;10999;51.332;9.458;2022-07-06T01:52:27;14.10;67.90
21676;DHT22;10999;51.332;9.458;2022-07-06T01:54:57;14.10;68.10
21676;DHT22;10999;51.332;9.458;2022-07-06T01:57:24;14.10;67.30
21676;DHT22;10999;51.332;9.458;2022-07-06T01:59:50;14.20;67.60
21676;DHT22;10999;51.332;9.458;2022-07-06T02:02:17;14.20;67.20
21676;DHT22;10999;51.332;9.458;2022-07-06T02:04:44;14.30;67.30
21676;DHT22;10999;51.332;9.458;2022-07-06T02:07:11;14.30;67.20
21676;DHT22;10999;51.332;9.458;2022-07-06T02:09:37;14.40;66.70
21676;DHT22;10999;51.332;9.458;2022-07-06T02:12:04;14.30;66.50
21676;DHT22;10999;51.332;9.458;2022-07-06T02:14:31;14.30;66.50
21676;DHT22;10999;51.332;9.458;2022-07-06T02:16:58;14.30;66.50
21676;DHT22;10999;51.332;9.458;2022-07-06T02:19:24;14.30;66.40
21676;DHT22;10999;51.332;9.458;2022-07-06T02:21:51;14.30;66.70
21676;DHT22;10999;51.332;9.458;2022-07-06T02:24:18;14.40;66.40
21676;DHT22;10999;51.332;9.458;2022-07-06T02:26:44;14.40;66.50
21676;DHT22;10999;51.332;9.458;2022-07-06T02:29:11;14.30;66.40
21676;DHT22;10999;51.332;9.458;2022-07-06T02:31:38;14.30;66.10
21676;DHT22;10999;51.332;9.458;2022-07-06T02:34:05;14.30;66.00
21676;DHT22;10999;51.332;9.458;2022-07-06T02:36:31;14.30;66.00
21676;DHT22;10999;51.332;9.458;2022-07-06T02:38:58;14.40;66.10
21676;DHT22;10999;51.332;9.458;2022-07-06T02:41:25;14.40;65.90
21676;DHT22;10999;51.332;9.458;2022-07-06T02:43:51;14.40;65.80
21676;DHT22;10999;51.332;9.458;2022-07-06T02:46:18;14.40;65.70
21676;DHT22;10999;51.332;9.458;2022-07-06T02:48:45;14.40;65.60
21676;DHT22;10999;51.332;9.458;2022-07-06T02:51:11;14.40;65.90
21676;DHT22;10999;51.332;9.458;2022-07-06T02:53:38;14.40;65.30
21676;DHT22;10999;51.332;9.458;2022-07-06T02:56:05;14.40;65.40
21676;DHT22;10999;51.332;9.458;2022-07-06T02:58:32;14.40;65.60
21676;DHT22;10999;51.332;9.458;2022-07-06T03:00:58;14.40;65.70
21676;DHT22;10999;51.332;9.458;2022-07-06T03:03:25;14.30;65.80
21676;DHT22;10999;51.332;9.458;2022-07-06T03:05:52;14.30;66.60
21676;DHT22;10999;51.332;9.458;2022-07-06T03:08:19;14.20;66.20
21676;DHT22;10999;51.332;9.458;2022-07-06T03:10:46;14.20;66.20
21676;DHT22;10999;51.332;9.458;2022-07-06T03:13:12;14.20;66.40
21676;DHT22;10999;51.332;9.458;2022-07-06T03:15:39;14.20;66.50
21676;DHT22;10999;51.332;9.458;2022-07-06T03:18:06;14.20;66.70
21676;DHT22;10999;51.332;9.458;2022-07-06T03:20:32;14.20;66.60
21676;DHT22;10999;51.332;9.458;2022-07-06T03:22:59;14.20;66.30
21676;DHT22;10999;51.332;9.458;2022-07-06T03:25:26;14.10;67.00
21676;DHT22;10999;51.332;9.458;2022-07-06T03:27:52;14.10;67.00
21676;DHT22;10999;51.332;9.458;2022-07-06T03:30:19;14.10;66.70
21676;DHT22;10999;51.332;9.458;2022-07-06T03:32:46;14.10;66.80
21676;DHT22;10999;51.332;9.458;2022-07-06T03:35:12;14.10;66.60
21676;DHT22;10999;51.332;9.458;2022-07-06T03:37:39;14.10;66.60
21676;DHT22;10999;51.332;9.458;2022-07-06T03:40:06;14.10;66.30
21676;DHT22;10999;51.332;9.458;2022-07-06T03:42:33;14.10;66.20
21676;DHT22;10999;51.332;9.458;2022-07-06T03:44:59;14.20;66.50
21676;DHT22;10999;51.332;9.458;2022-07-06T03:47:26;14.20;66.50
21676;DHT22;10999;51.332;9.458;2022-07-06T03:49:53;14.20;66.10
21676;DHT22;10999;51.332;9.458;2022-07-06T03:52:20;14.20;65.90
21676;DHT22;10999;51.332;9.458;2022-07-06T03:54:46;14.20;66.10
21676;DHT22;10999;51.332;9.458;2022-07-06T03:57:13;14.20;66.00
21676;DHT22;10999;51.332;9.458;2022-07-06T03:59:40;14.20;65.90
21676;DHT22;10999;51.332;9.458;2022-07-06T04:02:06;14.10;65.80
21676;DHT22;10999;51.332;9.458;2022-07-06T04:04:33;14.10;66.40
21676;DHT22;10999;51.332;9.458;2022-07-06T04:07:00;14.10;66.40
21676;DHT22;10999;51.332;9.458;2022-07-06T04:09:27;14.10;66.50
21676;DHT22;10999;51.332;9.458;2022-07-06T04:11:54;14.20;66.60
21676;DHT22;10999;51.332;9.458;2022-07-06T04:14:20;14.20;66.70
21676;DHT22;10999;51.332;9.458;2022-07-06T04:16:47;14.20;66.60
21676;DHT22;10999;51.332;9.458;2022-07-06T04:19:14;14.20;66.30
21676;DHT22;10999;51.332;9.458;2022-07-06T04:21:41;14.20;66.80
21676;DHT22;10999;51.332;9.458;2022-07-06T04:24:08;14.30;66.50
21676;DHT22;10999;51.332;9.458;2022-07-06T04:26:35;14.40;66.60
21676;DHT22;10999;51.332;9.458;2022-07-06T04:29:01;14.30;66.30
21676;DHT22;10999;51.332;9.458;2022-07-06T04:31:28;14.30;67.20
21676;DHT22;10999;51.332;9.458;2022-07-06T04:33:55;14.30;67.20
21676;DHT22;10999;51.332;9.458;2022-07-06T04:36:21;14.30;66.60
21676;DHT22;10999;51.332;9.458;2022-07-06T04:38:48;14.40;66.30
21676;DHT22;10999;51.332;9.458;2022-07-06T04:41:15;14.40;66.50
21676;DHT22;10999;51.332;9.458;2022-07-06T04:43:42;14.30;66.80
21676;DHT22;10999;51.332;9.458;2022-07-06T04:46:10;14.40;67.70
21676;DHT22;10999;51.332;9.458;2022-07-06T04:48:37;14.30;66.80
21676;DHT22;10999;51.332;9.458;2022-07-06T04:51:06;14.30;67.20
21676;DHT22;10999;51.332;9.458;2022-07-06T04:53:32;14.30;66.90
21676;DHT22;10999;51.332;9.458;2022-07-06T04:55:59;14.30;66.90
21676;DHT22;10999;51.332;9.458;2022-07-06T04:58:26;14.40;67.40
21676;DHT22;10999;51.332;9.458;2022-07-06T05:00:53;14.40;67.30
21676;DHT22;10999;51.332;9.458;2022-07-06T05:03:20;14.50;66.90
21676;DHT22;10999;51.332;9.458;2022-07-06T05:05:47;14.40;67.90
21676;DHT22;10999;51.332;9.458;2022-07-06T05:08:14;14.40;67.80
21676;DHT22;10999;51.332;9.458;2022-07-06T05:10:40;14.40;67.00
21676;DHT22;10999;51.332;9.458;2022-07-06T05:13:07;14.50;67.10
21676;DHT22;10999;51.332;9.458;2022-07-06T05:15:34;14.50;66.80
21676;DHT22;10999;51.332;9.458;2022-07-06T05:18:01;14.50;66.50
21676;DHT22;10999;51.332;9.458;2022-07-06T05:20:27;14.50;66.50
21676;DHT22;10999;51.332;9.458;2022-07-06T05:22:54;14.40;66.90
21676;DHT22;10999;51.332;9.458;2022-07-06T05:25:21;14.40;67.00
21676;DHT22;10999;51.332;9.458;2022-07-06T05:27:47;14.40;66.60
21676;DHT22;10999;51.332;9.458;2022-07-06T05:30:14;14.40;67.50
21676;DHT22;10999;51.332;9.458;2022-07-06T05:32:42;14.30;67.40
21676;DHT22;10999;51.332;9.458;2022-07-06T05:35:08;14.40;66.90
21676;DHT22;10999;51.332;9.458;2022-07-06T05:37:55;14.40;67.50
21676;DHT22;10999;51.332;9.458;2022-07-06T05:40:22;14.40;67.10
21676;DHT22;10999;51.332;9.458;2022-07-06T05:42:48;14.50;67.60
21676;DHT22;10999;51.332;9.458;2022-07-06T05:45:15;14.60;67.20
21676;DHT22;10999;51.332;9.458;2022-07-06T05:47:42;14.70;67.60
21676;DHT22;10999;51.332;9.458;2022-07-06T05:50:27;14.70;66.80
21676;DHT22;10999;51.332;9.458;2022-07-06T05:52:58;14.80;66.00
21676;DHT22;10999;51.332;9.458;2022-07-06T05:55:25;14.90;65.30
21676;DHT22;10999;51.332;9.458;2022-07-06T05:57:52;14.90;66.50
21676;DHT22;10999;51.332;9.458;2022-07-06T06:00:20;14.90;65.90
21676;DHT22;10999;51.332;9.458;2022-07-06T06:02:47;14.90;65.20
21676;DHT22;10999;51.332;9.458;2022-07-06T06:05:15;14.90;65.30
21676;DHT22;10999;51.332;9.458;2022-07-06T06:07:49;15.00;66.50
21676;DHT22;10999;51.332;9.458;2022-07-06T06:10:18;15.00;66.00
21676;DHT22;10999;51.332;9.458;2022-07-06T06:12:46;15.00;65.00
21676;DHT22;10999;51.332;9.458;2022-07-06T06:15:12;15.00;65.90
21676;DHT22;10999;51.332;9.458;2022-07-06T06:17:39;15.10;65.60
21676;DHT22;10999;51.332;9.458;2022-07-06T06:20:07;15.10;65.70
21676;DHT22;10999;51.332;9.458;2022-07-06T06:22:50;15.10;64.10
21676;DHT22;10999;51.332;9.458;2022-07-06T06:25:19;15.20;65.30
21676;DHT22;10999;51.332;9.458;2022-07-06T06:27:46;15.10;60.90
21676;DHT22;10999;51.332;9.458;2022-07-06T06:30:13;15.00;61.20
21676;DHT22;10999;51.332;9.458;2022-07-06T06:32:40;15.20;60.80
21676;DHT22;10999;51.332;9.458;2022-07-06T06:35:07;15.10;60.30
21676;DHT22;10999;51.332;9.458;2022-07-06T06:37:34;15.10;60.80
21676;DHT22;10999;51.332;9.458;2022-07-06T06:40:01;15.20;61.10
21676;DHT22;10999;51.332;9.458;2022-07-06T06:42:28;15.30;59.30
21676;DHT22;10999;51.332;9.458;2022-07-06T06:44:54;15.30;59.40
21676;DHT22;10999;51.332;9.458;2022-07-06T06:47:21;15.40;56.80
21676;DHT22;10999;51.332;9.458;2022-07-06T06:49:48;15.70;58.60
21676;DHT22;10999;51.332;9.458;2022-07-06T06:52:14;16.20;56.10
21676;DHT22;10999;51.332;9.458;2022-07-06T06:55:01;16.40;51.00
21676;DHT22;10999;51.332;9.458;2022-07-06T06:57:28;16.70;51.00
21676;DHT22;10999;51.332;9.458;2022-07-06T06:59:57;17.10;48.40
21676;DHT22;10999;51.332;9.458;2022-07-06T07:02:24;17.20;45.10
21676;DHT22;10999;51.332;9.458;2022-07-06T07:04:51;17.50;43.40
21676;DHT22;10999;51.332;9.458;2022-07-06T07:07:18;17.60;39.80
21676;DHT22;10999;51.332;9.458;2022-07-06T07:09:45;17.40;37.60
21676;DHT22;10999;51.332;9.458;2022-07-06T07:12:11;17.20;39.70
21676;DHT22;10999;51.332;9.458;2022-07-06T07:14:38;17.20;42.20
21676;DHT22;10999;51.332;9.458;2022-07-06T07:17:05;17.00;41.60
21676;DHT22;10999;51.332;9.458;2022-07-06T07:19:31;16.80;41.80
21676;DHT22;10999;51.332;9.458;2022-07-06T07:21:58;16.70;41.70
21676;DHT22;10999;51.332;9.458;2022-07-06T07:24:25;17.00;45.20
21676;DHT22;10999;51.332;9.458;2022-07-06T07:26:52;17.40;42.10
21676;DHT22;10999;51.332;9.458;2022-07-06T07:29:18;17.70;41.60
21676;DHT22;10999;51.332;9.458;2022-07-06T07:31:45;17.60;39.30
21676;DHT22;10999;51.332;9.458;2022-07-06T07:34:12;17.50;40.50
21676;DHT22;10999;51.332;9.458;2022-07-06T07:36:39;17.80;40.40
21676;DHT22;10999;51.332;9.458;2022-07-06T07:39:06;18.10;39.10
21676;DHT22;10999;51.332;9.458;2022-07-06T07:41:34;18.30;38.00
21676;DHT22;10999;51.332;9.458;2022-07-06T07:44:01;18.40;38.00
21676;DHT22;10999;51.332;9.458;2022-07-06T07:46:27;18.50;36.40
21676;DHT22;10999;51.332;9.458;2022-07-06T07:48:54;18.60;35.00
21676;DHT22;10999;51.332;9.458;2022-07-06T07:51:21;18.80;33.20
21676;DHT22;10999;51.332;9.458;2022-07-06T07:53:48;18.50;31.00
21676;DHT22;10999;51.332;9.458;2022-07-06T07:56:15;18.30;32.80
21676;DHT22;10999;51.332;9.458;2022-07-06T07:58:41;18.00;33.00
21676;DHT22;10999;51.332;9.458;2022-07-06T08:01:08;18.20;34.40
21676;DHT22;10999;51.332;9.458;2022-07-06T08:03:35;18.40;32.80
21676;DHT22;10999;51.332;9.458;2022-07-06T08:06:02;18.50;31.70
21676;DHT22;10999;51.332;9.458;2022-07-06T08:08:28;18.50;32.10
21676;DHT22;10999;51.332;9.458;2022-07-06T08:10:55;18.50;31.60
21676;DHT22;10999;51.332;9.458;2022-07-06T08:13:42;18.40;32.20
21676;DHT22;10999;51.332;9.458;2022-07-06T08:16:09;18.20;32.50
21676;DHT22;10999;51.332;9.458;2022-07-06T08:18:36;18.20;33.40
21676;DHT22;10999;51.332;9.458;2022-07-06T08:21:03;18.00;34.10
21676;DHT22;10999;51.332;9.458;2022-07-06T08:23:50;17.90;33.30
21676;DHT22;10999;51.332;9.458;2022-07-06T08:26:17;17.70;34.70
21676;DHT22;10999;51.332;9.458;2022-07-06T08:28:44;17.60;33.60
21676;DHT22;10999;51.332;9.458;2022-07-06T08:31:11;17.40;34.00
21676;DHT22;10999;51.332;9.458;2022-07-06T08:33:57;17.30;34.00
21676;DHT22;10999;51.332;9.458;2022-07-06T08:36:25;17.30;35.10
21676;DHT22;10999;51.332;9.458;2022-07-06T08:38:51;17.30;34.40
21676;DHT22;10999;51.332;9.458;2022-07-06T08:41:18;17.40;35.40
21676;DHT22;10999;51.332;9.458;2022-07-06T08:43:54;17.60;36.10
21676;DHT22;10999;51.332;9.458;2022-07-06T08:46:21;18.10;34.20
21676;DHT22;10999;51.332;9.458;2022-07-06T08:48:49;18.70;32.40
21676;DHT22;10999;51.332;9.458;2022-07-06T08:51:16;19.00;29.10
21676;DHT22;10999;51.332;9.458;2022-07-06T08:53:44;19.50;27.50
21676;DHT22;10999;51.332;9.458;2022-07-06T08:56:11;19.50;23.60
21676;DHT22;10999;51.332;9.458;2022-07-06T08:58:38;19.70;26.40
21676;DHT22;10999;51.332;9.458;2022-07-06T09:01:11;19.50;22.50
21676;DHT22;10999;51.332;9.458;2022-07-06T09:03:39;19.30;24.90
21676;DHT22;10999;51.332;9.458;2022-07-06T09:06:07;19.20;25.40
21676;DHT22;10999;51.332;9.458;2022-07-06T09:08:34;19.10;26.50
21676;DHT22;10999;51.332;9.458;2022-07-06T09:11:03;19.20;25.60
21676;DHT22;10999;51.332;9.458;2022-07-06T09:13:30;19.50;24.60
21676;DHT22;10999;51.332;9.458;2022-07-06T09:16:06;20.00;21.80
21676;DHT22;10999;51.332;9.458;2022-07-06T09:18:54;20.30;17.70
21676;DHT22;10999;51.332;9.458;2022-07-06T09:21:22;20.50;19.10
21676;DHT22;10999;51.332;9.458;2022-07-06T09:23:53;20.90;19.10
21676;DHT22;10999;51.332;9.458;2022-07-06T09:26:19;21.20;19.30
21676;DHT22;10999;51.332;9.458;2022-07-06T09:28:46;21.30;18.90
21676;DHT22;10999;51.332;9.458;2022-07-06T09:31:13;20.90;18.90
21676;DHT22;10999;51.332;9.458;2022-07-06T09:41:44;19.40;21.60
21676;DHT22;10999;51.332;9.458;2022-07-06T09:44:11;19.20;21.00
21676;DHT22;10999;51.332;9.458;2022-07-06T09:46:39;19.20;21.70
21676;DHT22;10999;51.332;9.458;2022-07-06T09:49:06;19.00;23.00
21676;DHT22;10999;51.332;9.458;2022-07-06T09:51:37;19.10;24.70
21676;DHT22;10999;51.332;9.458;2022-07-06T09:54:07;19.70;23.00
21676;DHT22;10999;51.332;9.458;2022-07-06T09:59:11;20.70;20.10
21676;DHT22;10999;51.332;9.458;2022-07-06T10:01:38;21.10;18.00
21676;DHT22;10999;51.332;9.458;2022-07-06T10:04:06;21.10;17.80
21676;DHT22;10999;51.332;9.458;2022-07-06T10:06:33;20.60;19.90
21676;DHT22;10999;51.332;9.458;2022-07-06T10:08:59;20.30;21.20
21676;DHT22;10999;51.332;9.458;2022-07-06T10:11:27;20.00;22.10
21676;DHT22;10999;51.332;9.458;2022-07-06T10:13:55;19.70;23.50
21676;DHT22;10999;51.332;9.458;2022-07-06T10:16:23;19.60;23.40
21676;DHT22;10999;51.332;9.458;2022-07-06T10:18:51;19.20;22.30
21676;DHT22;10999;51.332;9.458;2022-07-06T10:21:21;19.20;24.90
21676;DHT22;10999;51.332;9.458;2022-07-06T10:23:49;19.10;23.70
21676;DHT22;10999;51.332;9.458;2022-07-06T10:26:16;18.90;21.00
21676;DHT22;10999;51.332;9.458;2022-07-06T10:28:44;18.80;19.70
21676;DHT22;10999;51.332;9.458;2022-07-06T10:31:14;19.00;20.80
21676;DHT22;10999;51.332;9.458;2022-07-06T10:33:42;18.90;19.60
21676;DHT22;10999;51.332;9.458;2022-07-06T10:36:09;18.80;20.50
21676;DHT22;10999;51.332;9.458;2022-07-06T10:38:36;18.80;19.80
21676;DHT22;10999;51.332;9.458;2022-07-06T10:41:04;18.80;20.30
21676;DHT22;10999;51.332;9.458;2022-07-06T10:43:33;18.80;22.00
21676;DHT22;10999;51.332;9.458;2022-07-06T10:48:56;18.90;20.20
21676;DHT22;10999;51.332;9.458;2022-07-06T10:51:24;18.90;19.90
21676;DHT22;10999;51.332;9.458;2022-07-06T10:53:57;19.20;20.20
21676;DHT22;10999;51.332;9.458;2022-07-06T10:57:07;19.80;23.10
21676;DHT22;10999;51.332;9.458;2022-07-06T10:59:20;20.60;20.50
21676;DHT22;10999;51.332;9.458;2022-07-06T11:04:33;20.00;17.80
21676;DHT22;10999;51.332;9.458;2022-07-06T11:07:10;19.60;19.40
21676;DHT22;10999;51.332;9.458;2022-07-06T11:09:37;19.10;19.10
21676;DHT22;10999;51.332;9.458;2022-07-06T11:12:11;19.00;20.90
21676;DHT22;10999;51.332;9.458;2022-07-06T11:14:38;18.90;19.50
21676;DHT22;10999;51.332;9.458;2022-07-06T11:17:06;18.90;21.90
21676;DHT22;10999;51.332;9.458;2022-07-06T11:19:35;18.90;21.00
21676;DHT22;10999;51.332;9.458;2022-07-06T11:24:33;19.40;19.80
21676;DHT22;10999;51.332;9.458;2022-07-06T11:27:00;20.00;20.00
21676;DHT22;10999;51.332;9.458;2022-07-06T11:29:27;20.40;19.70
21676;DHT22;10999;51.332;9.458;2022-07-06T11:31:55;20.70;19.00
21676;DHT22;10999;51.332;9.458;2022-07-06T11:34:25;20.90;17.90
21676;DHT22;10999;51.332;9.458;2022-07-06T11:36:56;20.90;15.80
21676;DHT22;10999;51.332;9.458;2022-07-06T11:39:27;20.70;17.10
21676;DHT22;10999;51.332;9.458;2022-07-06T11:41:54;20.40;15.60
21676;DHT22;10999;51.332;9.458;2022-07-06T11:44:21;20.30;16.60
21676;DHT22;10999;51.332;9.458;2022-07-06T11:46:48;20.20;16.90
21676;DHT22;10999;51.332;9.458;2022-07-06T11:49:15;20.20;17.10
21676;DHT22;10999;51.332;9.458;2022-07-06T11:51:42;20.10;17.40
21676;DHT22;10999;51.332;9.458;2022-07-06T11:54:10;19.90;16.80
21676;DHT22;10999;51.332;9.458;2022-07-06T11:56:38;19.70;17.50
21676;DHT22;10999;51.332;9.458;2022-07-06T11:59:05;19.50;18.10
21676;DHT22;10999;51.332;9.458;2022-07-06T12:01:32;19.40;19.90
21676;DHT22;10999;51.332;9.458;2022-07-06T12:03:59;19.40;19.40
21676;DHT22;10999;51.332;9.458;2022-07-06T12:06:27;19.30;18.60
21676;DHT22;10999;51.332;9.458;2022-07-06T12:08:55;19.20;19.90
21676;DHT22;10999;51.332;9.458;2022-07-06T12:11:26;19.30;20.90
21676;DHT22;10999;51.332;9.458;2022-07-06T12:13:56;19.30;18.80
21676;DHT22;10999;51.332;9.458;2022-07-06T12:16:33;19.40;20.40
21676;DHT22;10999;51.332;9.458;2022-07-06T12:19:02;19.50;19.50
21676;DHT22;10999;51.332;9.458;2022-07-06T12:21:33;19.60;18.10
21676;DHT22;10999;51.332;9.458;2022-07-06T12:24:00;19.60;19.50
21676;DHT22;10999;51.332;9.458;2022-07-06T12:26:27;19.60;18.90
21676;DHT22;10999;51.332;9.458;2022-07-06T12:29:01;19.60;21.10
21676;DHT22;10999;51.332;9.458;2022-07-06T12:31:33;19.80;20.20
21676;DHT22;10999;51.332;9.458;2022-07-06T12:34:00;19.70;20.00
21676;DHT22;10999;51.332;9.458;2022-07-06T12:36:27;19.60;19.60
21676;DHT22;10999;51.332;9.458;2022-07-06T12:38:54;19.60;19.10
21676;DHT22;10999;51.332;9.458;2022-07-06T12:44:09;19.20;20.70
21676;DHT22;10999;51.332;9.458;2022-07-06T12:46:37;19.20;20.40
21676;DHT22;10999;51.332;9.458;2022-07-06T12:49:21;19.20;21.90
21676;DHT22;10999;51.332;9.458;2022-07-06T12:54:16;19.30;21.50
21676;DHT22;10999;51.332;9.458;2022-07-06T13:02:24;19.40;22.90
21676;DHT22;10999;51.332;9.458;2022-07-06T13:05:12;19.50;22.20
21676;DHT22;10999;51.332;9.458;2022-07-06T13:07:43;19.40;21.60
21676;DHT22;10999;51.332;9.458;2022-07-06T13:10:11;19.50;23.60
21676;DHT22;10999;51.332;9.458;2022-07-06T13:12:39;19.70;20.40
21676;DHT22;10999;51.332;9.458;2022-07-06T13:15:06;20.00;22.90
21676;DHT22;10999;51.332;9.458;2022-07-06T13:17:33;20.30;20.10
21676;DHT22;10999;51.332;9.458;2022-07-06T13:20:00;20.30;18.10
21676;DHT22;10999;51.332;9.458;2022-07-06T13:22:27;20.30;18.40
21676;DHT22;10999;51.332;9.458;2022-07-06T13:24:53;20.30;18.30
21676;DHT22;10999;51.332;9.458;2022-07-06T13:27:20;20.10;18.40
21676;DHT22;10999;51.332;9.458;2022-07-06T13:29:47;20.00;19.00
21676;DHT22;10999;51.332;9.458;2022-07-06T13:32:14;20.10;20.10
21676;DHT22;10999;51.332;9.458;2022-07-06T13:34:41;20.10;20.70
21676;DHT22;10999;51.332;9.458;2022-07-06T13:37:07;20.00;20.20
21676;DHT22;10999;51.332;9.458;2022-07-06T13:39:34;20.00;20.50
21676;DHT22;10999;51.332;9.458;2022-07-06T13:42:01;19.90;19.80
21676;DHT22;10999;51.332;9.458;2022-07-06T13:44:28;20.00;20.70
21676;DHT22;10999;51.332;9.458;2022-07-06T13:46:55;20.00;19.70
21676;DHT22;10999;51.332;9.458;2022-07-06T13:49:21;19.90;18.90
21676;DHT22;10999;51.332;9.458;2022-07-06T13:51:56;19.80;19.30
21676;DHT22;10999;51.332;9.458;2022-07-06T13:54:30;20.00;23.10
21676;DHT22;10999;51.332;9.458;2022-07-06T13:56:57;20.10;21.20
21676;DHT22;10999;51.332;9.458;2022-07-06T13:59:23;20.10;19.40
21676;DHT22;10999;51.332;9.458;2022-07-06T14:01:50;20.20;20.70
21676;DHT22;10999;51.332;9.458;2022-07-06T14:04:17;20.20;20.30
21676;DHT22;10999;51.332;9.458;2022-07-06T14:06:44;20.30;20.40
21676;DHT22;10999;51.332;9.458;2022-07-06T14:09:10;20.40;21.30
21676;DHT22;10999;51.332;9.458;2022-07-06T14:11:37;20.50;22.20
21676;DHT22;10999;51.332;9.458;2022-07-06T14:14:04;20.70;20.50
21676;DHT22;10999;51.332;9.458;2022-07-06T14:16:34;20.80;20.30
21676;DHT22;10999;51.332;9.458;2022-07-06T14:19:01;20.80;21.20
21676;DHT22;10999;51.332;9.458;2022-07-06T14:21:28;20.70;18.60
21676;DHT22;10999;51.332;9.458;2022-07-06T14:23:55;20.60;19.90
21676;DHT22;10999;51.332;9.458;2022-07-06T14:26:22;20.30;21.10
21676;DHT22;10999;51.332;9.458;2022-07-06T14:28:48;20.30;20.00
21676;DHT22;10999;51.332;9.458;2022-07-06T14:31:15;20.40;21.60
21676;DHT22;10999;51.332;9.458;2022-07-06T14:33:48;20.40;21.40
21676;DHT22;10999;51.332;9.458;2022-07-06T14:36:21;20.60;21.10
21676;DHT22;10999;51.332;9.458;2022-07-06T14:41:44;21.20;18.80
21676;DHT22;10999;51.332;9.458;2022-07-06T14:44:11;21.40;17.10
21676;DHT22;10999;51.332;9.458;2022-07-06T14:46:38;21.60;17.40
21676;DHT22;10999;51.332;9.458;2022-07-06T14:49:04;21.60;17.70
21676;DHT22;10999;51.332;9.458;2022-07-06T14:51:31;21.60;17.50
21676;DHT22;10999;51.332;9.458;2022-07-06T14:54:00;21.70;18.10
21676;DHT22;10999;51.332;9.458;2022-07-06T14:56:41;21.50;17.70
21676;DHT22;10999;51.332;9.458;2022-07-06T14:59:09;21.30;16.80
21676;DHT22;10999;51.332;9.458;2022-07-06T15:01:52;21.00;17.30
21676;DHT22;10999;51.332;9.458;2022-07-06T15:04:19;20.70;18.10
21676;DHT22;10999;51.332;9.458;2022-07-06T15:06:46;20.50;18.40
21676;DHT22;10999;51.332;9.458;2022-07-06T15:09:22;20.30;19.20
21676;DHT22;10999;51.332;9.458;2022-07-06T15:11:49;20.40;20.30
21676;DHT22;10999;51.332;9.458;2022-07-06T15:14:16;20.40;19.50
21676;DHT22;10999;51.332;9.458;2022-07-06T15:16:44;20.60;19.80
21676;DHT22;10999;51.332;9.458;2022-07-06T15:19:11;20.80;20.00
21676;DHT22;10999;51.332;9.458;2022-07-06T15:21:38;20.80;18.90
21676;DHT22;10999;51.332;9.458;2022-07-06T15:24:04;20.80;18.20
21676;DHT22;10999;51.332;9.458;2022-07-06T15:26:31;20.60;17.80
21676;DHT22;10999;51.332;9.458;2022-07-06T15:28:58;20.50;19.90
21676;DHT22;10999;51.332;9.458;2022-07-06T15:31:25;20.50;20.10
21676;DHT22;10999;51.332;9.458;2022-07-06T15:33:52;20.50;19.80
21676;DHT22;10999;51.332;9.458;2022-07-06T15:36:18;20.50;20.00
21676;DHT22;10999;51.332;9.458;2022-07-06T15:38:45;20.50;19.10
21676;DHT22;10999;51.332;9.458;2022-07-06T15:41:12;20.60;18.60
21676;DHT22;10999;51.332;9.458;2022-07-06T15:43:38;20.50;18.50
21676;DHT22;10999;51.332;9.458;2022-07-06T15:46:05;20.40;18.30
21676;DHT22;10999;51.332;9.458;2022-07-06T15:48:33;20.30;18.10
21676;DHT22;10999;51.332;9.458;2022-07-06T15:51:00;20.50;19.40
21676;DHT22;10999;51.332;9.458;2022-07-06T15:53:27;20.50;18.20
21676;DHT22;10999;51.332;9.458;2022-07-06T15:55:55;20.70;18.50
21676;DHT22;10999;51.332;9.458;2022-07-06T15:58:25;20.90;17.80
21676;DHT22;10999;51.332;9.458;2022-07-06T16:00:55;21.00;17.40
21676;DHT22;10999;51.332;9.458;2022-07-06T16:03:27;21.10;16.70
21676;DHT22;10999;51.332;9.458;2022-07-06T16:05:57;21.20;18.30
21676;DHT22;10999;51.332;9.458;2022-07-06T16:08:37;21.10;17.70